createdAt,value
2022-07-29T00:02:26.382Z,57.67
2022-07-29T00:04:52.975Z,57.97
2022-07-29T00:07:19.550Z,57.67
2022-07-29T00:09:51.599Z,57.87
2022-07-29T00:12:26.107Z,58.09
2022-07-29T00:14:56.070Z,58.12
2022-07-29T00:17:23.997Z,58.33
2022-07-29T00:19:50.450Z,58.32
2022-07-29T00:22:17.188Z,57.89
2022-07-29T00:24:43.796Z,57.80
2022-07-29T00:27:10.341Z,58.03
2022-07-29T00:29:36.961Z,57.72
2022-07-29T00:32:04.005Z,58.00
2022-07-29T00:34:49.318Z,58.13
2022-07-29T00:37:15.773Z,58.55
2022-07-29T00:39:42.371Z,58.15
2022-07-29T00:42:09.098Z,59.08
2022-07-29T00:44:42.551Z,58.42
2022-07-29T00:47:10.423Z,58.60
2022-07-29T00:49:39.586Z,58.34
2022-07-29T00:52:07.034Z,58.77
2022-07-29T00:54:34.644Z,58.62
2022-07-29T00:57:02.245Z,58.80
2022-07-29T00:59:34.848Z,58.88
2022-07-29T01:02:03.382Z,59.02
2022-07-29T01:04:31.722Z,58.60
2022-07-29T01:06:58.395Z,58.62
2022-07-29T01:09:43.063Z,58.73
2022-07-29T01:12:19.869Z,58.30
2022-07-29T01:14:48.046Z,59.06
2022-07-29T01:17:23.010Z,58.71
2022-07-29T01:20:11.115Z,58.63
2022-07-29T01:23:16.475Z,58.68
2022-07-29T01:25:56.132Z,58.51
2022-07-29T01:28:46.522Z,58.42
2022-07-29T01:31:24.957Z,58.20
2022-07-29T01:33:59.706Z,58.42
2022-07-29T01:36:35.945Z,58.58
2022-07-29T01:39:10.744Z,57.78
2022-07-29T01:41:41.133Z,58.63
2022-07-29T01:44:19.757Z,58.10
2022-07-29T01:46:57.042Z,58.57
2022-07-29T01:49:36.933Z,58.00
2022-07-29T01:52:09.426Z,57.91
2022-07-29T01:54:46.743Z,58.39
2022-07-29T01:57:18.367Z,58.21
2022-07-29T01:59:47.458Z,58.62
2022-07-29T02:02:17.272Z,58.17
2022-07-29T02:04:46.530Z,58.51
2022-07-29T02:07:17.814Z,58.04
2022-07-29T02:09:46.651Z,58.24
2022-07-29T02:12:16.425Z,58.23
2022-07-29T02:14:48.350Z,58.22
2022-07-29T02:17:33.723Z,57.96
2022-07-29T02:20:04.330Z,58.07
2022-07-29T02:22:34.378Z,58.26
2022-07-29T02:25:02.045Z,58.17
2022-07-29T02:27:31.782Z,58.48
2022-07-29T02:30:01.287Z,58.24
2022-07-29T02:32:29.413Z,58.32
2022-07-29T02:34:57.482Z,58.72
2022-07-29T02:37:25.633Z,58.11
2022-07-29T02:39:54.787Z,58.33
2022-07-29T02:42:23.652Z,58.24
2022-07-29T02:44:50.625Z,58.43
2022-07-29T02:47:25.102Z,58.64
2022-07-29T02:50:12.511Z,58.36
2022-07-29T02:52:50.190Z,58.24
2022-07-29T02:55:26.030Z,58.84
2022-07-29T02:58:01.424Z,58.72
2022-07-29T03:00:30.775Z,58.69
2022-07-29T03:03:00.935Z,58.44
2022-07-29T03:05:28.370Z,58.77
2022-07-29T03:08:06.355Z,58.99
2022-07-29T03:10:34.038Z,58.91
2022-07-29T03:13:01.807Z,58.85
2022-07-29T03:15:28.731Z,58.61
2022-07-29T03:17:56.482Z,59.04
2022-07-29T03:20:23.222Z,58.84
2022-07-29T03:22:49.905Z,58.84
2022-07-29T03:25:20.967Z,59.40
2022-07-29T03:27:48.597Z,59.24
2022-07-29T03:30:18.370Z,58.99
2022-07-29T03:32:48.582Z,58.90
2022-07-29T03:35:17.460Z,58.83
2022-07-29T03:37:44.824Z,58.97
2022-07-29T03:40:15.545Z,59.41
2022-07-29T03:42:44.257Z,59.42
2022-07-29T03:45:18.461Z,58.96
2022-07-29T03:47:52.867Z,59.25
2022-07-29T03:50:22.352Z,59.24
2022-07-29T03:52:49.551Z,59.59
2022-07-29T03:55:16.858Z,59.49
2022-07-29T03:57:45.941Z,59.26
2022-07-29T04:00:13.093Z,59.57
2022-07-29T04:02:40.876Z,59.24
2022-07-29T04:05:13.115Z,59.56
2022-07-29T04:07:39.535Z,59.31
2022-07-29T04:10:06.605Z,59.52
2022-07-29T04:12:33.037Z,59.94
2022-07-29T04:14:59.478Z,59.58
2022-07-29T04:17:25.909Z,59.55
2022-07-29T04:19:52.331Z,59.47
2022-07-29T04:22:18.739Z,59.53
2022-07-29T04:24:45.214Z,59.79
2022-07-29T04:27:11.762Z,59.29
2022-07-29T04:29:38.192Z,59.36
2022-07-29T04:32:23.648Z,59.46
2022-07-29T04:34:50.084Z,59.62
2022-07-29T04:37:16.529Z,59.19
2022-07-29T04:39:43.146Z,59.47
2022-07-29T04:42:09.703Z,59.63
2022-07-29T04:44:37.182Z,59.64
2022-07-29T04:47:09.041Z,59.40
2022-07-29T04:49:35.437Z,59.39
2022-07-29T04:52:02.050Z,59.40
2022-07-29T04:54:28.505Z,59.33
2022-07-29T04:56:54.975Z,59.03
2022-07-29T04:59:21.389Z,59.13
2022-07-29T05:01:47.879Z,59.61
2022-07-29T05:04:14.689Z,59.59
2022-07-29T05:06:41.291Z,58.88
2022-07-29T05:09:07.868Z,59.28
2022-07-29T05:11:34.341Z,59.35
2022-07-29T05:14:00.836Z,59.71
2022-07-29T05:16:28.662Z,60.10
2022-07-29T05:18:55.131Z,60.19
2022-07-29T05:21:21.569Z,59.80
2022-07-29T05:23:48.189Z,59.35
2022-07-29T05:26:14.616Z,59.47
2022-07-29T05:28:41.182Z,59.11
2022-07-29T05:31:07.657Z,59.11
2022-07-29T05:33:36.889Z,58.89
2022-07-29T05:36:07.693Z,59.04
2022-07-29T05:38:35.345Z,59.19
2022-07-29T05:41:01.774Z,59.11
2022-07-29T05:43:29.152Z,58.89
2022-07-29T05:45:56.067Z,59.02
2022-07-29T05:48:22.601Z,59.49
2022-07-29T05:50:49.198Z,58.94
2022-07-29T05:53:19.372Z,58.56
2022-07-29T05:55:48.165Z,58.73
2022-07-29T05:58:14.673Z,58.67
2022-07-29T06:00:41.176Z,59.01
2022-07-29T06:03:07.622Z,58.71
2022-07-29T06:05:34.147Z,58.60
2022-07-29T06:08:00.719Z,58.60
2022-07-29T06:10:27.867Z,58.76
2022-07-29T06:12:54.788Z,58.96
2022-07-29T06:15:21.283Z,59.17
2022-07-29T06:18:00.020Z,58.87
2022-07-29T06:20:30.637Z,59.14
2022-07-29T06:22:57.665Z,59.39
2022-07-29T06:25:24.256Z,59.55
2022-07-29T06:27:50.712Z,59.30
2022-07-29T06:30:17.236Z,59.47
2022-07-29T06:32:43.681Z,58.95
2022-07-29T06:35:37.738Z,59.26
2022-07-29T06:37:56.791Z,58.96
2022-07-29T06:40:44.731Z,59.01
2022-07-29T06:43:11.706Z,59.22
2022-07-29T06:45:42.047Z,58.48
2022-07-29T06:48:08.854Z,58.88
2022-07-29T06:50:35.521Z,58.34
2022-07-29T06:53:02.175Z,58.45
2022-07-29T06:55:28.770Z,58.44
2022-07-29T06:57:55.399Z,58.68
2022-07-29T07:00:21.840Z,58.26
2022-07-29T07:02:48.781Z,58.08
2022-07-29T07:05:15.464Z,58.11
2022-07-29T07:07:41.877Z,57.66
2022-07-29T07:10:08.768Z,57.65
2022-07-29T07:12:35.284Z,58.17
2022-07-29T07:15:01.884Z,58.11
2022-07-29T07:17:28.312Z,57.65
2022-07-29T07:19:56.321Z,57.25
2022-07-29T07:22:22.773Z,57.52
2022-07-29T07:24:49.268Z,57.54
2022-07-29T07:27:15.695Z,57.52
2022-07-29T07:29:44.200Z,57.58
2022-07-29T07:32:11.104Z,57.16
2022-07-29T07:34:38.830Z,56.69
2022-07-29T07:37:05.919Z,56.25
2022-07-29T07:39:32.571Z,56.29
2022-07-29T07:41:59.144Z,56.03
2022-07-29T07:44:25.639Z,55.91
2022-07-29T07:46:52.120Z,55.48
2022-07-29T07:49:19.860Z,55.57
2022-07-29T07:51:50.833Z,55.52
2022-07-29T07:54:18.902Z,55.89
2022-07-29T07:56:49.774Z,55.12
2022-07-29T07:59:18.797Z,55.51
2022-07-29T08:01:47.981Z,55.57
2022-07-29T08:04:26.882Z,55.10
2022-07-29T08:06:57.975Z,55.15
2022-07-29T08:09:30.320Z,55.50
2022-07-29T08:11:59.389Z,55.53
2022-07-29T08:14:25.999Z,55.56
2022-07-29T08:16:52.629Z,55.61
2022-07-29T08:19:19.441Z,55.83
2022-07-29T08:21:46.239Z,56.08
2022-07-29T08:24:31.668Z,56.14
2022-07-29T08:26:58.264Z,56.46
2022-07-29T08:29:24.984Z,56.54
2022-07-29T08:31:51.817Z,56.89
2022-07-29T08:34:18.610Z,56.95
2022-07-29T08:36:50.983Z,56.82
2022-07-29T08:39:18.004Z,56.51
2022-07-29T08:41:56.734Z,56.74
2022-07-29T08:44:30.400Z,55.98
2022-07-29T08:46:57.732Z,56.32
2022-07-29T08:49:24.198Z,56.08
2022-07-29T08:51:51.630Z,55.47
2022-07-29T08:54:19.437Z,56.33
2022-07-29T08:56:50.082Z,55.86
2022-07-29T08:59:17.680Z,55.80
2022-07-29T09:01:48.865Z,55.81
2022-07-29T09:04:16.892Z,55.19
2022-07-29T09:06:45.793Z,55.17
2022-07-29T09:09:14.594Z,55.12
2022-07-29T09:11:42.156Z,54.77
2022-07-29T09:14:08.681Z,54.33
2022-07-29T09:16:56.290Z,54.68
2022-07-29T09:19:45.464Z,53.58
2022-07-29T09:22:13.140Z,52.78
2022-07-29T09:24:48.371Z,52.19
2022-07-29T09:27:26.830Z,51.63
2022-07-29T09:30:00.112Z,50.83
2022-07-29T09:32:27.537Z,49.91
2022-07-29T09:35:17.237Z,49.67
2022-07-29T09:37:45.398Z,49.16
2022-07-29T09:40:13.889Z,48.75
2022-07-29T09:42:40.413Z,48.15
2022-07-29T09:45:07.960Z,47.22
2022-07-29T09:47:47.885Z,47.54
2022-07-29T09:50:14.973Z,47.21
2022-07-29T09:52:53.185Z,47.15
2022-07-29T09:55:20.433Z,46.61
2022-07-29T09:57:47.889Z,46.15
2022-07-29T10:00:19.789Z,46.26
2022-07-29T10:02:47.616Z,46.30
2022-07-29T10:05:22.811Z,46.13
2022-07-29T10:07:54.098Z,45.85
2022-07-29T10:10:49.793Z,45.82
2022-07-29T10:13:16.800Z,45.18
2022-07-29T10:15:46.718Z,45.13
2022-07-29T10:18:15.105Z,44.46
2022-07-29T10:20:42.319Z,44.29
2022-07-29T10:23:10.028Z,44.05
2022-07-29T10:25:37.211Z,44.02
2022-07-29T10:28:03.911Z,43.88
2022-07-29T10:30:31.873Z,43.29
2022-07-29T10:33:15.868Z,44.00
2022-07-29T10:35:50.507Z,44.61
2022-07-29T10:38:34.911Z,44.44
2022-07-29T10:41:43.811Z,44.84
2022-07-29T10:44:22.885Z,44.28
2022-07-29T10:46:51.947Z,43.85
2022-07-29T10:52:10.601Z,42.75
2022-07-29T10:54:37.335Z,43.57
2022-07-29T10:57:25.797Z,43.61
2022-07-29T11:00:11.881Z,42.32
2022-07-29T11:02:45.765Z,41.86
2022-07-29T11:05:19.580Z,41.76
2022-07-29T11:08:19.523Z,42.06
2022-07-29T11:10:47.985Z,41.98
2022-07-29T11:13:44.538Z,41.32
2022-07-29T11:16:13.746Z,41.43
2022-07-29T11:19:14.092Z,40.61
2022-07-29T11:21:53.732Z,38.85
2022-07-29T11:24:31.771Z,38.25
2022-07-29T11:27:23.198Z,37.87
2022-07-29T11:29:55.730Z,37.08
2022-07-29T11:32:25.138Z,35.55
2022-07-29T11:35:37.886Z,33.80
2022-07-29T11:38:29.206Z,32.03
2022-07-29T11:41:16.800Z,30.69
2022-07-29T11:43:50.666Z,29.10
2022-07-29T11:46:39.169Z,28.72
2022-07-29T11:49:09.245Z,29.63
2022-07-29T11:51:38.303Z,28.50
2022-07-29T11:54:27.442Z,28.77
2022-07-29T11:56:54.344Z,29.67
2022-07-29T11:59:21.958Z,29.77
2022-07-29T12:02:12.126Z,29.84
2022-07-29T12:04:56.071Z,30.23
2022-07-29T12:07:35.290Z,29.25
2022-07-29T12:10:03.062Z,26.20
2022-07-29T12:12:29.617Z,23.83
2022-07-29T12:14:56.255Z,21.93
2022-07-29T12:17:41.723Z,20.85
2022-07-29T12:20:09.116Z,19.00
2022-07-29T12:22:41.973Z,18.39
2022-07-29T12:25:32.507Z,16.69
2022-07-29T12:28:07.796Z,15.58
2022-07-29T12:30:40.490Z,15.13
2022-07-29T12:33:37.406Z,16.22
2022-07-29T12:36:10.388Z,16.50
2022-07-29T12:38:41.686Z,16.18
2022-07-29T12:41:08.238Z,16.26
2022-07-29T12:43:34.654Z,15.93
2022-07-29T12:46:15.796Z,15.56
2022-07-29T12:48:44.253Z,15.50
2022-07-29T12:51:12.710Z,16.29
2022-07-29T12:53:39.954Z,16.83
2022-07-29T12:56:26.560Z,18.57
2022-07-29T12:58:53.951Z,19.70
2022-07-29T13:01:21.855Z,21.66
2022-07-29T13:03:55.791Z,22.65
2022-07-29T13:06:46.168Z,23.47
2022-07-29T13:09:20.220Z,23.94
2022-07-29T13:11:49.173Z,25.23
2022-07-29T13:14:38.242Z,25.82
2022-07-29T13:17:14.017Z,25.68
2022-07-29T13:19:48.622Z,26.40
2022-07-29T13:22:20.375Z,26.55
2022-07-29T13:24:54.279Z,29.62
2022-07-29T13:27:25.997Z,31.20
2022-07-29T13:29:53.840Z,32.62
2022-07-29T13:32:28.392Z,33.59
2022-07-29T13:34:56.718Z,33.80
2022-07-29T13:37:23.139Z,34.55
2022-07-29T13:39:52.829Z,35.10
2022-07-29T13:42:19.948Z,35.73
2022-07-29T13:44:46.372Z,35.73
2022-07-29T13:47:13.702Z,36.49
2022-07-29T13:49:40.134Z,36.77
2022-07-29T13:52:08.439Z,36.89
2022-07-29T13:54:42.030Z,37.15
2022-07-29T13:57:09.402Z,37.28
2022-07-29T13:59:36.069Z,37.37
2022-07-29T14:02:03.057Z,37.65
2022-07-29T14:04:29.737Z,37.79
2022-07-29T14:06:56.247Z,37.94
2022-07-29T14:09:22.675Z,38.30
2022-07-29T14:11:51.033Z,38.31
2022-07-29T14:14:17.993Z,38.74
2022-07-29T14:16:47.880Z,38.48
2022-07-29T14:19:18.040Z,39.01
2022-07-29T14:21:45.575Z,39.29
2022-07-29T14:24:15.004Z,39.23
2022-07-29T14:26:46.347Z,39.28
2022-07-29T14:29:13.320Z,39.40
2022-07-29T14:31:39.820Z,39.72
2022-07-29T14:34:06.409Z,40.07
2022-07-29T14:36:33.087Z,40.04
2022-07-29T14:38:59.544Z,40.73
2022-07-29T14:41:29.035Z,40.31
2022-07-29T14:43:55.521Z,40.61
2022-07-29T14:46:22.061Z,40.10
2022-07-29T14:48:48.782Z,40.47
2022-07-29T14:51:15.379Z,40.83
2022-07-29T14:53:41.908Z,41.25
2022-07-29T14:56:34.980Z,41.58
2022-07-29T14:58:54.879Z,41.95
2022-07-29T15:01:21.326Z,42.15
2022-07-29T15:03:47.937Z,41.78
2022-07-29T15:06:14.391Z,41.59
2022-07-29T15:08:40.991Z,41.67
2022-07-29T15:11:07.618Z,41.83
2022-07-29T15:13:35.187Z,42.25
2022-07-29T15:16:01.599Z,42.20
2022-07-29T15:18:28.171Z,42.16
2022-07-29T15:20:54.605Z,42.27
2022-07-29T15:23:22.239Z,42.77
2022-07-29T15:25:48.700Z,42.47
2022-07-29T15:28:15.225Z,42.93
2022-07-29T15:30:41.906Z,42.65
2022-07-29T15:33:10.353Z,43.10
2022-07-29T15:35:40.125Z,42.98
2022-07-29T15:38:07.427Z,43.18
2022-07-29T15:40:34.264Z,43.08
2022-07-29T15:43:06.335Z,43.45
2022-07-29T15:45:41.017Z,43.65
2022-07-29T15:48:08.824Z,43.81
2022-07-29T15:50:35.774Z,43.90
2022-07-29T15:53:03.099Z,44.14
2022-07-29T15:55:29.698Z,44.83
2022-07-29T15:58:00.270Z,44.58
2022-07-29T16:00:27.362Z,44.58
2022-07-29T16:02:53.838Z,44.61
2022-07-29T16:05:20.268Z,44.72
2022-07-29T16:07:46.665Z,45.28
2022-07-29T16:10:13.294Z,45.56
2022-07-29T16:12:39.741Z,45.14
2022-07-29T16:15:09.864Z,45.09
2022-07-29T16:17:37.780Z,45.36
2022-07-29T16:20:05.749Z,45.67
2022-07-29T16:22:32.212Z,46.04
2022-07-29T16:24:58.741Z,46.24
2022-07-29T16:27:37.429Z,45.94
2022-07-29T16:30:08.239Z,46.25
2022-07-29T16:32:34.697Z,46.46
2022-07-29T16:35:02.691Z,46.39
2022-07-29T16:37:33.419Z,46.78
2022-07-29T16:39:59.927Z,47.11
2022-07-29T16:42:45.413Z,47.15
2022-07-29T16:45:12.811Z,47.31
2022-07-29T16:47:39.286Z,47.29
2022-07-29T16:50:06.237Z,47.58
2022-07-29T16:52:32.719Z,47.67
2022-07-29T16:54:59.131Z,47.84
2022-07-29T16:57:25.527Z,48.17
2022-07-29T16:59:52.132Z,48.48
2022-07-29T17:02:18.607Z,48.65
2022-07-29T17:04:45.077Z,48.54
2022-07-29T17:07:11.668Z,48.61
2022-07-29T17:09:38.185Z,48.80
2022-07-29T17:12:05.278Z,48.78
2022-07-29T17:14:31.712Z,48.27
2022-07-29T17:17:02.368Z,48.54
2022-07-29T17:19:34.011Z,48.46
2022-07-29T17:22:19.439Z,48.67
2022-07-29T17:24:47.185Z,48.78
2022-07-29T17:27:13.732Z,49.08
2022-07-29T17:29:40.820Z,49.25
2022-07-29T17:32:09.320Z,49.55
2022-07-29T17:34:37.185Z,49.65
2022-07-29T17:37:05.513Z,49.67
2022-07-29T17:39:32.753Z,49.81
2022-07-29T17:41:59.590Z,49.56
2022-07-29T17:44:26.068Z,49.89
2022-07-29T17:46:52.619Z,49.86
2022-07-29T17:49:19.193Z,50.05
2022-07-29T17:51:45.955Z,49.88
2022-07-29T17:54:12.504Z,50.14
2022-07-29T17:56:38.930Z,50.06
2022-07-29T17:59:09.973Z,50.24
2022-07-29T18:01:38.110Z,50.30
2022-07-29T18:04:04.644Z,50.22
2022-07-29T18:06:31.155Z,50.34
2022-07-29T18:08:57.673Z,50.49
2022-07-29T18:11:24.209Z,50.42
2022-07-29T18:13:51.029Z,50.54
2022-07-29T18:16:17.941Z,50.67
2022-07-29T18:18:45.295Z,50.79
2022-07-29T18:21:11.893Z,50.83
2022-07-29T18:23:38.704Z,51.10
2022-07-29T18:26:05.325Z,51.34
2022-07-29T18:28:34.474Z,51.39
2022-07-29T18:31:01.152Z,51.34
2022-07-29T18:33:27.866Z,51.54
2022-07-29T18:36:11.109Z,51.63
2022-07-29T18:38:39.772Z,51.77
2022-07-29T18:41:06.321Z,51.82
2022-07-29T18:43:32.804Z,52.02
2022-07-29T18:45:59.292Z,52.17
2022-07-29T18:48:25.790Z,52.32
2022-07-29T18:50:52.432Z,52.55
2022-07-29T18:53:19.135Z,52.86
2022-07-29T18:55:45.708Z,53.08
2022-07-29T18:58:12.149Z,53.04
2022-07-29T19:00:38.972Z,53.03
2022-07-29T19:03:05.524Z,53.23
2022-07-29T19:05:32.578Z,53.62
2022-07-29T19:07:59.470Z,53.55
2022-07-29T19:10:26.726Z,53.71
2022-07-29T19:12:54.329Z,54.16
2022-07-29T19:15:20.839Z,54.35
2022-07-29T19:17:48.473Z,54.49
2022-07-29T19:20:15.897Z,54.44
2022-07-29T19:22:42.566Z,54.76
2022-07-29T19:25:09.972Z,55.02
2022-07-29T19:27:36.414Z,55.12
2022-07-29T19:30:06.004Z,55.17
2022-07-29T19:32:32.481Z,55.49
2022-07-29T19:35:17.423Z,55.55
2022-07-29T19:37:43.851Z,55.47
2022-07-29T19:40:12.089Z,55.57
2022-07-29T19:42:38.651Z,55.75
2022-07-29T19:45:05.635Z,55.86
2022-07-29T19:47:32.043Z,55.95
2022-07-29T19:50:00.573Z,56.24
2022-07-29T19:52:27.446Z,56.55
2022-07-29T19:54:53.910Z,56.58
2022-07-29T19:57:20.643Z,56.80
2022-07-29T19:59:47.003Z,56.94
2022-07-29T20:02:13.707Z,57.21
2022-07-29T20:04:48.437Z,57.04
2022-07-29T20:07:14.994Z,57.49
2022-07-29T20:09:42.284Z,57.73
2022-07-29T20:12:09.795Z,57.33
2022-07-29T20:14:36.931Z,58.00
2022-07-29T20:17:04.625Z,57.86
2022-07-29T20:19:32.180Z,57.88
2022-07-29T20:21:59.009Z,58.15
2022-07-29T20:24:25.714Z,58.33
2022-07-29T20:26:52.385Z,58.59
2022-07-29T20:29:18.883Z,58.74
2022-07-29T20:31:45.704Z,58.65
2022-07-29T20:34:19.961Z,59.11
2022-07-29T20:36:48.617Z,59.38
2022-07-29T20:39:15.214Z,59.21
2022-07-29T20:41:41.609Z,59.55
2022-07-29T20:44:08.202Z,59.97
2022-07-29T20:46:34.696Z,59.92
2022-07-29T20:49:01.315Z,60.13
2022-07-29T20:51:27.785Z,60.12
2022-07-29T20:53:54.204Z,60.69
2022-07-29T20:56:20.642Z,60.23
2022-07-29T20:58:47.059Z,60.48
2022-07-29T21:01:13.675Z,60.94
2022-07-29T21:03:40.089Z,60.93
2022-07-29T21:06:07.716Z,61.09
2022-07-29T21:08:34.157Z,61.04
2022-07-29T21:11:00.769Z,61.02
2022-07-29T21:13:27.705Z,61.49
2022-07-29T21:15:58.631Z,61.15
2022-07-29T21:18:32.577Z,61.50
2022-07-29T21:21:00.741Z,61.45
2022-07-29T21:23:27.861Z,61.79
2022-07-29T21:25:54.909Z,62.16
2022-07-29T21:28:27.422Z,62.25
2022-07-29T21:30:54.786Z,62.39
2022-07-29T21:33:21.504Z,62.12
2022-07-29T21:38:34.885Z,62.23
2022-07-29T21:41:02.451Z,62.86
2022-07-29T21:43:29.204Z,62.64
2022-07-29T21:45:56.635Z,63.09
2022-07-29T21:48:24.920Z,63.24
2022-07-29T21:50:52.201Z,63.61
2022-07-29T21:53:22.081Z,63.22
2022-07-29T21:55:54.259Z,63.60
2022-07-29T21:58:22.884Z,64.02
2022-07-29T22:00:49.412Z,63.91
2022-07-29T22:03:16.372Z,64.36
2022-07-29T22:05:42.953Z,64.77
2022-07-29T22:08:09.606Z,64.67
2022-07-29T22:10:36.271Z,65.19
2022-07-29T22:13:03.309Z,65.47
2022-07-29T22:15:30.276Z,65.18
2022-07-29T22:17:57.000Z,65.52
2022-07-29T22:20:24.130Z,65.94
2022-07-29T22:22:50.543Z,65.58
2022-07-29T22:25:17.830Z,65.92
2022-07-29T22:27:44.359Z,66.04
2022-07-29T22:30:11.292Z,65.83
2022-07-29T22:32:37.778Z,66.08
2022-07-29T22:35:05.223Z,66.11
2022-07-29T22:37:31.629Z,66.35
2022-07-29T22:39:58.009Z,66.29
2022-07-29T22:42:24.525Z,65.99
2022-07-29T22:44:51.228Z,66.60
2022-07-29T22:47:17.645Z,66.61
2022-07-29T22:50:04.481Z,66.70
2022-07-29T22:52:30.929Z,66.91
2022-07-29T22:54:57.459Z,66.38
2022-07-29T22:57:24.091Z,66.59
2022-07-29T22:59:50.624Z,67.02
2022-07-29T23:02:17.194Z,66.73
2022-07-29T23:04:43.692Z,67.24
2022-07-29T23:07:10.158Z,67.22
2022-07-29T23:09:36.767Z,67.82
2022-07-29T23:12:03.415Z,67.30
2022-07-29T23:14:29.833Z,67.68
2022-07-29T23:16:56.311Z,67.69
2022-07-29T23:19:22.921Z,68.07
2022-07-29T23:21:49.310Z,68.23
2022-07-29T23:24:15.712Z,67.81
2022-07-29T23:26:42.212Z,67.96
2022-07-29T23:29:08.622Z,68.38
2022-07-29T23:31:35.896Z,68.67
2022-07-29T23:34:08.474Z,68.14
2022-07-29T23:36:34.916Z,68.07
2022-07-29T23:39:01.468Z,68.16
2022-07-29T23:41:31.667Z,68.32
2022-07-29T23:43:58.064Z,68.14
2022-07-29T23:46:24.597Z,68.34
2022-07-29T23:48:51.120Z,68.68
2022-07-29T23:51:17.568Z,68.64
2022-07-29T23:53:53.263Z,68.89
2022-07-29T23:56:20.872Z,69.21
2022-07-29T23:58:47.522Z,69.17
